createdAt,value
2023-04-23T00:00:07.136Z,97315.81
2023-04-23T00:02:34.012Z,97319.41
2023-04-23T00:05:06.060Z,97314.22
2023-04-23T00:07:36.021Z,97314.22
2023-04-23T00:10:05.749Z,97308.63
2023-04-23T00:12:33.291Z,97312.22
2023-04-23T00:15:01.634Z,97316.19
2023-04-23T00:17:28.585Z,97305.84
2023-04-23T00:19:55.543Z,97304.25
2023-04-23T00:22:22.509Z,97304.63
2023-04-23T00:24:50.506Z,97310.16
2023-04-23T00:27:18.243Z,97314.50
2023-04-23T00:29:46.335Z,97304.53
2023-04-23T00:32:16.547Z,97317.69
2023-04-23T00:34:43.193Z,97314.06
2023-04-23T00:37:10.855Z,97320.47
2023-04-23T00:39:38.919Z,97313.28
2023-04-23T00:42:12.127Z,97314.81
2023-04-23T00:44:42.234Z,97307.25
2023-04-23T00:47:09.132Z,97314.47
2023-04-23T00:49:36.005Z,97308.84
2023-04-23T00:52:04.251Z,97312.75
2023-04-23T00:54:32.553Z,97310.81
2023-04-23T00:56:59.192Z,97310.34
2023-04-23T00:59:26.381Z,97304.78
2023-04-23T01:01:53.115Z,97307.16
2023-04-23T01:04:20.879Z,97301.94
2023-04-23T01:06:48.491Z,97303.94
2023-04-23T01:09:16.059Z,97309.13
2023-04-23T01:11:46.239Z,97315.09
2023-04-23T01:14:13.754Z,97302.25
2023-04-23T01:16:41.031Z,97316.16
2023-04-23T01:19:12.428Z,97314.16
2023-04-23T01:21:41.789Z,97312.56
2023-04-23T01:24:08.670Z,97309.78
2023-04-23T01:26:36.030Z,97311.00
2023-04-23T01:29:06.126Z,97311.75
2023-04-23T01:31:33.549Z,97323.31
2023-04-23T01:34:00.443Z,97317.22
2023-04-23T01:36:27.261Z,97319.63
2023-04-23T01:38:54.753Z,97320.38
2023-04-23T01:41:21.258Z,97314.31
2023-04-23T01:43:49.081Z,97326.25
2023-04-23T01:46:18.075Z,97325.53
2023-04-23T01:48:44.670Z,97327.44
2023-04-23T01:51:12.521Z,97331.75
2023-04-23T01:53:40.455Z,97331.22
2023-04-23T01:56:09.891Z,97331.78
2023-04-23T01:58:37.352Z,97332.63
2023-04-23T02:01:04.123Z,97338.59
2023-04-23T02:03:31.068Z,97329.53
2023-04-23T02:05:58.728Z,97329.84
2023-04-23T02:08:25.216Z,97330.75
2023-04-23T02:10:51.953Z,97328.75
2023-04-23T02:13:19.601Z,97326.72
2023-04-23T02:15:46.110Z,97331.44
2023-04-23T02:18:13.008Z,97330.63
2023-04-23T02:20:41.625Z,97325.06
2023-04-23T02:23:08.847Z,97338.50
2023-04-23T02:25:38.388Z,97332.31
2023-04-23T02:28:07.391Z,97332.13
2023-04-23T02:30:34.639Z,97340.00
2023-04-23T02:33:01.309Z,97338.66
2023-04-23T02:35:27.906Z,97348.69
2023-04-23T02:37:59.486Z,97350.19
2023-04-23T02:40:26.040Z,97350.19
2023-04-23T02:42:53.313Z,97342.22
2023-04-23T02:45:21.878Z,97345.00
2023-04-23T02:47:49.932Z,97344.00
2023-04-23T02:50:18.146Z,97347.97
2023-04-23T02:52:44.995Z,97349.22
2023-04-23T02:55:12.790Z,97342.38
2023-04-23T02:57:40.544Z,97356.22
2023-04-23T03:00:09.618Z,97356.59
2023-04-23T03:02:37.604Z,97347.84
2023-04-23T03:05:05.255Z,97353.28
2023-04-23T03:07:33.943Z,97356.28
2023-04-23T03:10:01.685Z,97363.00
2023-04-23T03:12:28.381Z,97363.31
2023-04-23T03:14:55.192Z,97362.19
2023-04-23T03:17:22.925Z,97370.91
2023-04-23T03:19:49.991Z,97362.00
2023-04-23T03:22:16.490Z,97367.50
2023-04-23T03:24:50.138Z,97368.28
2023-04-23T03:27:22.936Z,97367.88
2023-04-23T03:29:49.874Z,97373.03
2023-04-23T03:32:16.712Z,97368.84
2023-04-23T03:34:43.605Z,97372.88
2023-04-23T03:37:13.676Z,97380.81
2023-04-23T03:39:41.453Z,97374.31
2023-04-23T03:42:07.995Z,97379.38
2023-04-23T03:44:34.715Z,97380.34
2023-04-23T03:47:01.268Z,97387.53
2023-04-23T03:49:28.036Z,97386.88
2023-04-23T03:51:54.549Z,97389.34
2023-04-23T03:54:24.808Z,97373.94
2023-04-23T03:56:51.157Z,97383.00
2023-04-23T03:59:20.263Z,97389.25
2023-04-23T04:01:51.162Z,97378.06
2023-04-23T04:04:19.990Z,97387.88
2023-04-23T04:06:48.574Z,97390.47
2023-04-23T04:09:15.769Z,97386.88
2023-04-23T04:11:42.238Z,97390.72
2023-04-23T04:14:09.153Z,97397.47
2023-04-23T04:16:35.693Z,97393.91
2023-04-23T04:19:03.135Z,97394.72
2023-04-23T04:21:32.626Z,97397.19
2023-04-23T04:24:08.875Z,97393.25
2023-04-23T04:26:38.296Z,97389.38
2023-04-23T04:29:04.987Z,97386.59
2023-04-23T04:31:32.319Z,97397.25
2023-04-23T04:34:00.504Z,97384.84
2023-04-23T04:36:28.663Z,97389.81
2023-04-23T04:38:56.593Z,97390.34
2023-04-23T04:41:26.499Z,97388.88
2023-04-23T04:43:55.023Z,97392.47
2023-04-23T04:46:21.649Z,97392.38
2023-04-23T04:48:51.135Z,97396.34
2023-04-23T04:51:18.317Z,97396.69
2023-04-23T04:53:46.685Z,97394.94
2023-04-23T04:56:13.208Z,97402.22
2023-04-23T04:58:42.019Z,97403.31
2023-04-23T05:01:09.750Z,97403.63
2023-04-23T05:03:37.933Z,97398.88
2023-04-23T05:06:06.134Z,97399.75
2023-04-23T05:08:34.253Z,97401.41
2023-04-23T05:11:03.422Z,97399.91
2023-04-23T05:13:29.965Z,97409.22
2023-04-23T05:15:56.482Z,97398.44
2023-04-23T05:18:25.285Z,97399.34
2023-04-23T05:20:52.003Z,97394.06
2023-04-23T05:23:19.891Z,97393.94
2023-04-23T05:25:46.735Z,97394.63
2023-04-23T05:28:13.258Z,97396.78
2023-04-23T05:30:39.874Z,97398.44
2023-04-23T05:33:07.462Z,97393.75
2023-04-23T05:35:34.186Z,97405.22
2023-04-23T05:38:02.721Z,97399.53
2023-04-23T05:40:32.209Z,97396.41
2023-04-23T05:43:01.176Z,97402.00
2023-04-23T05:45:27.816Z,97398.94
2023-04-23T05:47:57.762Z,97403.91
2023-04-23T05:50:31.247Z,97405.56
2023-04-23T05:52:58.100Z,97398.78
2023-04-23T05:55:26.946Z,97398.47
2023-04-23T05:57:54.650Z,97404.06
2023-04-23T06:00:23.793Z,97401.53
2023-04-23T06:02:50.555Z,97390.00
2023-04-23T06:05:17.513Z,97398.16
2023-04-23T06:07:45.355Z,97400.19
2023-04-23T06:10:13.533Z,97395.88
2023-04-23T06:12:41.960Z,97406.66
2023-04-23T06:15:09.830Z,97400.97
2023-04-23T06:17:37.510Z,97396.22
2023-04-23T06:20:07.470Z,97390.09
2023-04-23T06:22:33.990Z,97391.81
2023-04-23T06:25:00.832Z,97396.34
2023-04-23T06:27:30.625Z,97396.97
2023-04-23T06:29:59.450Z,97396.34
2023-04-23T06:32:30.369Z,97392.53
2023-04-23T06:35:01.359Z,97393.41
2023-04-23T06:37:33.945Z,97405.06
2023-04-23T06:40:00.607Z,97393.59
2023-04-23T06:42:27.184Z,97399.16
2023-04-23T06:44:53.824Z,97390.78
2023-04-23T06:47:22.038Z,97394.78
2023-04-23T06:49:48.553Z,97391.31
2023-04-23T06:52:15.669Z,97388.53
2023-04-23T06:54:45.466Z,97387.03
2023-04-23T06:57:12.023Z,97377.91
2023-04-23T06:59:38.585Z,97378.84
2023-04-23T07:02:05.725Z,97382.56
2023-04-23T07:04:32.603Z,97384.13
2023-04-23T07:07:00.223Z,97388.13
2023-04-23T07:09:40.129Z,97380.56
2023-04-23T07:12:07.682Z,97380.28
2023-04-23T07:14:34.175Z,97382.88
2023-04-23T07:17:01.754Z,97371.28
2023-04-23T07:19:29.652Z,97368.97
2023-04-23T07:21:56.757Z,97375.34
2023-04-23T07:24:24.127Z,97369.38
2023-04-23T07:26:51.180Z,97373.59
2023-04-23T07:29:17.708Z,97363.38
2023-04-23T07:31:46.330Z,97354.66
2023-04-23T07:34:12.998Z,97361.56
2023-04-23T07:36:39.529Z,97360.38
2023-04-23T07:39:07.454Z,97354.06
2023-04-23T07:41:34.226Z,97363.97
2023-04-23T07:44:00.999Z,97361.63
2023-04-23T07:46:28.030Z,97354.47
2023-04-23T07:48:55.507Z,97351.28
2023-04-23T07:51:22.562Z,97350.50
2023-04-23T07:53:51.510Z,97353.63
2023-04-23T07:56:20.760Z,97349.66
2023-04-23T07:58:47.218Z,97358.81
2023-04-23T08:01:14.054Z,97358.81
2023-04-23T08:03:42.253Z,97351.16
2023-04-23T08:06:12.149Z,97345.53
2023-04-23T08:08:47.203Z,97337.53
2023-04-23T08:11:13.947Z,97342.59
2023-04-23T08:13:40.420Z,97334.66
2023-04-23T08:16:07.302Z,97351.09
2023-04-23T08:18:35.292Z,97351.78
2023-04-23T08:21:02.098Z,97339.50
2023-04-23T08:23:29.823Z,97341.88
2023-04-23T08:25:56.853Z,97343.44
2023-04-23T08:28:23.587Z,97335.72
2023-04-23T08:30:51.006Z,97338.13
2023-04-23T08:33:18.822Z,97337.63
2023-04-23T08:35:45.517Z,97321.56
2023-04-23T08:38:16.191Z,97326.34
2023-04-23T08:40:42.871Z,97332.94
2023-04-23T08:43:16.607Z,97329.25
2023-04-23T08:45:45.820Z,97329.41
2023-04-23T08:48:14.272Z,97328.06
2023-04-23T08:50:43.673Z,97321.72
2023-04-23T08:53:12.302Z,97320.50
2023-04-23T08:55:38.779Z,97323.72
2023-04-23T08:58:06.385Z,97332.75
2023-04-23T09:00:34.439Z,97327.22
2023-04-23T09:03:02.399Z,97339.59
2023-04-23T09:05:29.379Z,97345.19
2023-04-23T09:07:56.627Z,97336.69
2023-04-23T09:10:25.388Z,97339.41
2023-04-23T09:12:51.849Z,97343.63
2023-04-23T09:15:20.254Z,97335.50
2023-04-23T09:17:50.078Z,97336.09
2023-04-23T09:20:18.424Z,97340.81
2023-04-23T09:22:48.919Z,97337.91
2023-04-23T09:25:18.347Z,97325.88
2023-04-23T09:27:46.013Z,97322.38
2023-04-23T09:30:13.979Z,97324.09
2023-04-23T09:32:44.762Z,97306.09
2023-04-23T09:35:15.952Z,97306.88
2023-04-23T09:37:43.830Z,97311.16
2023-04-23T09:40:10.906Z,97311.44
2023-04-23T09:42:41.283Z,97311.34
2023-04-23T09:45:09.151Z,97303.22
2023-04-23T09:47:42.413Z,97296.84
2023-04-23T09:50:11.951Z,97301.25
2023-04-23T09:52:41.072Z,97306.63
2023-04-23T09:55:09.584Z,97289.19
2023-04-23T09:57:37.481Z,97295.84
2023-04-23T10:00:19.337Z,97283.97
2023-04-23T10:02:49.542Z,97276.13
2023-04-23T10:05:24.166Z,97288.69
2023-04-23T10:07:53.064Z,97292.72
2023-04-23T10:10:20.151Z,97297.50
2023-04-23T10:12:54.845Z,97298.00
2023-04-23T10:15:21.963Z,97292.41
2023-04-23T10:17:51.608Z,97297.78
2023-04-23T10:20:21.030Z,97307.28
2023-04-23T10:22:48.705Z,97293.03
2023-04-23T10:25:15.321Z,97286.56
2023-04-23T10:27:52.207Z,97300.81
2023-04-23T10:30:21.225Z,97300.72
2023-04-23T10:32:48.782Z,97300.28
2023-04-23T10:35:15.999Z,97296.09
2023-04-23T10:37:42.722Z,97284.31
2023-04-23T10:40:14.650Z,97292.97
2023-04-23T10:42:43.957Z,97296.44
2023-04-23T10:45:24.918Z,97284.84
2023-04-23T10:47:56.636Z,97289.28
2023-04-23T10:50:34.336Z,97287.53
2023-04-23T10:53:01.626Z,97288.97
2023-04-23T10:55:29.296Z,97288.00
2023-04-23T10:58:08.409Z,97287.16
2023-04-23T11:00:41.203Z,97284.09
2023-04-23T11:03:37.340Z,97271.06
2023-04-23T11:06:06.444Z,97277.53
2023-04-23T11:08:35.158Z,97273.13
2023-04-23T11:11:03.503Z,97270.50
2023-04-23T11:13:30.300Z,97273.03
2023-04-23T11:16:22.367Z,97277.22
2023-04-23T11:18:59.892Z,97268.78
2023-04-23T11:22:04.538Z,97263.56
2023-04-23T11:24:32.631Z,97252.00
2023-04-23T11:27:02.101Z,97253.53
2023-04-23T11:29:30.115Z,97255.81
2023-04-23T11:32:03.123Z,97252.47
2023-04-23T11:34:30.270Z,97248.19
2023-04-23T11:36:58.546Z,97251.03
2023-04-23T11:39:27.321Z,97247.19
2023-04-23T11:41:55.639Z,97248.00
2023-04-23T11:44:24.015Z,97247.72
2023-04-23T11:46:50.803Z,97253.97
2023-04-23T11:49:17.832Z,97257.19
2023-04-23T11:51:45.907Z,97252.03
2023-04-23T11:54:13.495Z,97245.50
2023-04-23T11:56:41.579Z,97246.22
2023-04-23T11:59:12.624Z,97258.53
2023-04-23T12:01:46.612Z,97269.47
2023-04-23T12:04:30.315Z,97298.63
2023-04-23T12:07:15.758Z,97288.59
2023-04-23T12:09:49.812Z,97279.94
2023-04-23T12:12:16.620Z,97278.75
2023-04-23T12:14:43.180Z,97284.34
2023-04-23T12:17:11.117Z,97264.66
2023-04-23T12:19:39.597Z,97257.34
2023-04-23T12:22:08.718Z,97263.31
2023-04-23T12:24:55.144Z,97272.88
2023-04-23T12:27:23.622Z,97298.66
2023-04-23T12:29:58.949Z,97307.81
2023-04-23T12:32:26.862Z,97313.75
2023-04-23T12:34:58.173Z,97307.34
2023-04-23T12:37:29.679Z,97301.84
2023-04-23T12:40:00.870Z,97291.69
2023-04-23T12:42:27.728Z,97273.44
2023-04-23T12:44:58.476Z,97277.94
2023-04-23T12:47:27.547Z,97269.22
2023-04-23T12:49:57.204Z,97267.59
2023-04-23T12:52:25.922Z,97268.69
2023-04-23T12:54:56.847Z,97274.16
2023-04-23T12:57:24.788Z,97267.25
2023-04-23T12:59:52.260Z,97266.72
2023-04-23T13:02:18.969Z,97260.91
2023-04-23T13:04:46.490Z,97252.78
2023-04-23T13:07:12.960Z,97253.38
2023-04-23T13:09:39.440Z,97246.63
2023-04-23T13:12:06.391Z,97230.31
2023-04-23T13:14:32.905Z,97232.69
2023-04-23T13:16:59.825Z,97230.22
2023-04-23T13:19:26.446Z,97219.72
2023-04-23T13:25:34.397Z,97204.91
2023-04-23T13:28:01.286Z,97198.56
2023-04-23T13:30:30.338Z,97199.28
2023-04-23T13:32:58.947Z,97199.97
2023-04-23T13:35:27.554Z,97198.91
2023-04-23T13:37:55.184Z,97194.34
2023-04-23T13:40:23.087Z,97180.56
2023-04-23T13:42:50.324Z,97182.34
2023-04-23T13:45:17.116Z,97176.38
2023-04-23T13:47:45.857Z,97176.63
2023-04-23T13:50:13.334Z,97162.72
2023-04-23T13:52:39.914Z,97168.25
2023-04-23T13:55:07.675Z,97162.44
2023-04-23T13:57:34.899Z,97151.53
2023-04-23T14:00:01.420Z,97149.94
2023-04-23T14:02:28.080Z,97149.06
2023-04-23T14:04:58.039Z,97148.56
2023-04-23T14:07:24.542Z,97144.44
2023-04-23T14:09:53.401Z,97139.25
2023-04-23T14:12:20.955Z,97124.75
2023-04-23T14:14:49.709Z,97121.91
2023-04-23T14:17:16.305Z,97118.56
2023-04-23T14:19:43.864Z,97106.31
2023-04-23T14:22:10.479Z,97103.69
2023-04-23T14:24:45.074Z,97105.44
2023-04-23T14:27:11.799Z,97096.03
2023-04-23T14:29:41.519Z,97098.31
2023-04-23T14:32:09.059Z,97098.31
2023-04-23T14:34:36.789Z,97091.91
2023-04-23T14:37:05.371Z,97091.81
2023-04-23T14:39:34.220Z,97092.69
2023-04-23T14:42:08.583Z,97085.78
2023-04-23T14:44:35.639Z,97087.31
2023-04-23T14:47:09.830Z,97081.28
2023-04-23T14:49:37.483Z,97082.59
2023-04-23T14:52:04.076Z,97075.34
2023-04-23T14:54:30.573Z,97078.22
2023-04-23T14:56:57.044Z,97076.53
2023-04-23T14:59:23.557Z,97076.84
2023-04-23T15:01:50.093Z,97065.31
2023-04-23T15:04:16.773Z,97071.66
2023-04-23T15:06:43.617Z,97064.97
2023-04-23T15:09:10.126Z,97065.09
2023-04-23T15:11:38.667Z,97056.78
2023-04-23T15:14:09.361Z,97061.34
2023-04-23T15:16:48.324Z,97064.53
2023-04-23T15:19:17.889Z,97055.91
2023-04-23T15:21:44.961Z,97054.25
2023-04-23T15:24:11.439Z,97053.56
2023-04-23T15:26:37.991Z,97048.09
2023-04-23T15:29:05.106Z,97059.09
2023-04-23T15:31:31.616Z,97080.44
2023-04-23T15:33:58.140Z,97071.53
2023-04-23T15:36:24.616Z,97062.69
2023-04-23T15:38:51.117Z,97056.59
2023-04-23T15:41:17.580Z,97058.94
2023-04-23T15:43:44.149Z,97058.19
2023-04-23T15:46:10.648Z,97053.66
2023-04-23T15:48:37.147Z,97047.91
2023-04-23T15:51:03.769Z,97052.91
2023-04-23T15:53:30.235Z,97034.13
2023-04-23T15:55:57.419Z,97043.31
2023-04-23T15:58:23.880Z,97043.63
2023-04-23T16:00:50.392Z,97031.41
2023-04-23T16:03:17.067Z,97023.84
2023-04-23T16:05:44.685Z,97013.53
2023-04-23T16:08:11.898Z,97009.47
2023-04-23T16:10:38.491Z,97004.66
2023-04-23T16:13:06.067Z,96997.41
2023-04-23T16:15:32.654Z,96992.13
2023-04-23T16:17:59.905Z,96997.69
2023-04-23T16:20:27.902Z,96990.88
2023-04-23T16:22:54.676Z,96987.84
2023-04-23T16:25:21.168Z,96993.69
2023-04-23T16:27:47.767Z,96985.81
2023-04-23T16:30:14.300Z,96977.75
2023-04-23T16:32:40.829Z,96980.84
2023-04-23T16:35:08.269Z,96967.25
2023-04-23T16:37:34.721Z,96981.22
2023-04-23T16:40:02.102Z,96972.41
2023-04-23T16:42:28.612Z,96972.06
2023-04-23T16:44:55.219Z,96972.06
2023-04-23T16:47:21.938Z,96969.66
2023-04-23T16:49:48.440Z,96956.50
2023-04-23T16:52:14.936Z,96957.81
2023-04-23T16:54:41.516Z,96959.44
2023-04-23T16:57:08.143Z,96951.56
2023-04-23T16:59:34.688Z,96948.78
2023-04-23T17:02:01.340Z,96950.72
2023-04-23T17:04:28.025Z,96949.47
2023-04-23T17:06:54.563Z,96944.69
2023-04-23T17:09:21.041Z,96948.25
2023-04-23T17:11:47.496Z,96946.34
2023-04-23T17:14:13.987Z,96951.56
2023-04-23T17:16:41.574Z,96944.50
2023-04-23T17:19:08.157Z,96937.28
2023-04-23T17:21:34.644Z,96927.78
2023-04-23T17:24:01.269Z,96931.78
2023-04-23T17:26:27.775Z,96926.19
2023-04-23T17:28:54.305Z,96922.75
2023-04-23T17:31:20.925Z,96922.25
2023-04-23T17:33:49.319Z,96912.78
2023-04-23T17:36:17.077Z,96922.34
2023-04-23T17:38:43.689Z,96908.44
2023-04-23T17:41:10.330Z,96907.28
2023-04-23T17:43:36.821Z,96910.06
2023-04-23T17:46:03.526Z,96905.31
2023-04-23T17:48:30.257Z,96911.78
2023-04-23T17:50:57.055Z,96902.00
2023-04-23T17:53:23.835Z,96896.44
2023-04-23T17:55:50.324Z,96895.28
2023-04-23T17:58:17.052Z,96887.69
2023-04-23T18:00:44.057Z,96889.69
2023-04-23T18:03:11.761Z,96888.09
2023-04-23T18:05:38.475Z,96882.97
2023-04-23T18:08:06.841Z,96886.53
2023-04-23T18:10:33.436Z,96882.38
2023-04-23T18:13:02.849Z,96877.81
2023-04-23T18:15:32.097Z,96877.41
2023-04-23T18:17:59.103Z,96880.19
2023-04-23T18:20:26.519Z,96874.84
2023-04-23T18:22:54.273Z,96871.38
2023-04-23T18:25:20.809Z,96874.06
2023-04-23T18:27:47.805Z,96869.66
2023-04-23T18:30:15.335Z,96875.56
2023-04-23T18:32:44.309Z,96879.50
2023-04-23T18:35:10.912Z,96883.44
2023-04-23T18:37:47.047Z,96890.56
2023-04-23T18:40:13.563Z,96890.56
2023-04-23T18:42:40.218Z,96889.00
2023-04-23T18:45:07.719Z,96884.59
2023-04-23T18:47:44.768Z,96889.88
2023-04-23T18:50:41.685Z,96887.41
2023-04-23T18:53:08.186Z,96889.22
2023-04-23T18:55:34.675Z,96888.09
2023-04-23T18:58:01.214Z,96885.66
2023-04-23T19:00:30.122Z,96890.53
2023-04-23T19:02:56.712Z,96881.34
2023-04-23T19:05:23.248Z,96875.75
2023-04-23T19:07:49.860Z,96870.41
2023-04-23T19:10:16.714Z,96874.34
2023-04-23T19:12:43.932Z,96869.16
2023-04-23T19:15:10.993Z,96872.75
2023-04-23T19:17:38.750Z,96859.59
2023-04-23T19:20:08.035Z,96852.47
2023-04-23T19:22:34.511Z,96855.31
2023-04-23T19:25:01.072Z,96854.25
2023-04-23T19:27:27.819Z,96847.09
2023-04-23T19:29:54.511Z,96843.66
2023-04-23T19:32:22.061Z,96838.94
2023-04-23T19:34:48.516Z,96845.00
2023-04-23T19:37:15.011Z,96835.50
2023-04-23T19:39:41.659Z,96834.28
2023-04-23T19:42:08.341Z,96830.66
2023-04-23T19:44:34.819Z,96834.25
2023-04-23T19:47:01.512Z,96830.28
2023-04-23T19:49:28.047Z,96833.84
2023-04-23T19:51:54.525Z,96838.53
2023-04-23T19:54:22.806Z,96857.66
2023-04-23T19:56:50.501Z,96874.31
2023-04-23T19:59:20.818Z,96876.34
2023-04-23T20:01:47.915Z,96883.97
2023-04-23T20:04:14.554Z,96879.63
2023-04-23T20:06:41.216Z,96884.03
2023-04-23T20:09:08.011Z,96888.03
2023-04-23T20:11:35.269Z,96885.69
2023-04-23T20:14:02.023Z,96876.97
2023-04-23T20:16:28.620Z,96880.16
2023-04-23T20:18:58.101Z,96867.84
2023-04-23T20:21:24.782Z,96871.03
2023-04-23T20:23:51.403Z,96862.31
2023-04-23T20:26:18.730Z,96854.38
2023-04-23T20:28:47.306Z,96851.53
2023-04-23T20:31:14.412Z,96844.41
2023-04-23T20:33:41.307Z,96852.34
2023-04-23T20:36:11.313Z,96857.09
2023-04-23T20:38:38.055Z,96860.28
2023-04-23T20:41:05.605Z,96858.28
2023-04-23T20:43:33.306Z,96856.28
2023-04-23T20:46:00.156Z,96843.16
2023-04-23T20:48:29.247Z,96847.94
2023-04-23T20:50:56.630Z,96847.16
2023-04-23T20:53:23.213Z,96851.50
2023-04-23T20:55:49.784Z,96845.56
2023-04-23T20:58:16.472Z,96829.28
2023-04-23T21:00:42.994Z,96826.13
2023-04-23T21:03:09.559Z,96825.31
2023-04-23T21:05:37.534Z,96820.94
2023-04-23T21:08:04.010Z,96811.00
2023-04-23T21:10:30.676Z,96802.31
2023-04-23T21:12:57.169Z,96785.63
2023-04-23T21:15:23.688Z,96794.72
2023-04-23T21:17:50.178Z,96793.16
2023-04-23T21:20:16.736Z,96787.22
2023-04-23T21:22:44.259Z,96784.41
2023-04-23T21:25:10.735Z,96771.72
2023-04-23T21:27:37.285Z,96775.28
2023-04-23T21:30:10.114Z,96774.06
2023-04-23T21:32:36.598Z,96782.81
2023-04-23T21:35:03.086Z,96774.06
2023-04-23T21:37:31.214Z,96770.09
2023-04-23T21:39:57.686Z,96782.41
2023-04-23T21:42:24.193Z,96780.00
2023-04-23T21:44:50.701Z,96780.03
2023-04-23T21:47:17.182Z,96778.81
2023-04-23T21:49:44.373Z,96778.78
2023-04-23T21:52:10.948Z,96780.00
2023-04-23T21:54:39.498Z,96784.38
2023-04-23T21:57:06.022Z,96791.13
2023-04-23T21:59:32.775Z,96796.28
2023-04-23T22:01:59.281Z,96780.03
2023-04-23T22:04:27.562Z,96771.69
2023-04-23T22:06:54.662Z,96776.88
2023-04-23T22:09:21.334Z,96776.44
2023-04-23T22:12:01.040Z,96777.25
2023-04-23T22:14:27.918Z,96769.69
2023-04-23T22:16:55.081Z,96776.06
2023-04-23T22:19:21.673Z,96767.34
2023-04-23T22:21:48.154Z,96769.31
2023-04-23T22:24:14.612Z,96768.91
2023-04-23T22:26:41.089Z,96766.13
2023-04-23T22:29:07.922Z,96768.13
2023-04-23T22:31:34.473Z,96774.47
2023-04-23T22:34:01.034Z,96764.94
2023-04-23T22:36:28.619Z,96763.34
2023-04-23T22:38:56.127Z,96750.66
2023-04-23T22:41:22.610Z,96754.22
2023-04-23T22:43:49.178Z,96761.75
2023-04-23T22:46:15.773Z,96755.41
2023-04-23T22:48:44.749Z,96753.81
2023-04-23T22:51:11.813Z,96759.78
2023-04-23T22:53:38.297Z,96768.47
2023-04-23T22:56:04.830Z,96761.72
2023-04-23T22:58:33.721Z,96768.88
2023-04-23T23:01:00.686Z,96766.47
2023-04-23T23:03:27.356Z,96771.22
2023-04-23T23:05:53.994Z,96772.00
2023-04-23T23:08:20.494Z,96766.78
2023-04-23T23:10:46.992Z,96779.88
2023-04-23T23:13:13.553Z,96771.97
2023-04-23T23:15:40.514Z,96765.19
2023-04-23T23:18:07.738Z,96764.84
2023-04-23T23:20:34.359Z,96769.56
2023-04-23T23:23:00.891Z,96765.59
2023-04-23T23:25:27.402Z,96758.47
2023-04-23T23:27:53.909Z,96758.47
2023-04-23T23:30:20.508Z,96747.38
2023-04-23T23:32:47.060Z,96752.16
2023-04-23T23:35:13.721Z,96750.19
2023-04-23T23:37:40.191Z,96758.13
2023-04-23T23:40:07.449Z,96754.56
2023-04-23T23:42:33.936Z,96753.72
2023-04-23T23:45:00.399Z,96746.59
2023-04-23T23:47:26.968Z,96756.47
2023-04-23T23:49:53.523Z,96747.69
2023-04-23T23:52:20.028Z,96749.31
2023-04-23T23:54:46.632Z,96754.84
2023-04-23T23:57:13.133Z,96758.78
2023-04-23T23:59:39.626Z,96760.34
